Time,TemperatureF,DewpointF,PressureIn,WindDirection,WindDirectionDegrees,WindSpeedMPH,WindSpeedGustMPH,Humidity,HourlyPrecipIn,Conditions,Clouds,dailyrainin,SoftwareType,DateUTC
2013-06-01 00:00:00,65.0,34.4,30.04,ENE,64,3.0,7.0,32,0.00,CLR,,0.00,WeatherDisplay:10.37,2013-06-01 07:00:00,
2013-06-01 00:10:00,64.0,35.0,30.04,NE,56,3.0,5.0,34,0.00,CLR,,0.00,WeatherDisplay:10.37,2013-06-01 07:10:00,
2013-06-01 00:20:00,63.0,33.4,30.05,NNE,28,5.0,6.0,33,0.00,CLR,,0.00,WeatherDisplay:10.37,2013-06-01 07:20:00,
2013-06-01 00:30:00,63.0,34.9,30.05,North,0,5.0,6.0,35,0.00,CLR,,0.00,WeatherDisplay:10.37,2013-06-01 07:30:00,
2013-06-01 00:40:00,63.0,34.2,30.05,North,360,2.0,5.0,34,0.00,CLR,,0.00,WeatherDisplay:10.37,2013-06-01 07:40:00,
2013-06-01 00:50:00,63.0,33.4,30.05,NNW,346,6.0,6.0,33,0.00,CLR,,0.00,WeatherDisplay:10.37,2013-06-01 07:50:00,
2013-06-01 01:00:00,64.0,35.0,30.04,NNW,337,6.0,6.0,34,0.00,CLR,,0.00,WeatherDisplay:10.37,2013-06-01 08:00:00,
2013-06-01 01:10:00,64.0,33.5,30.04,NNW,337,5.0,6.0,32,0.00,CLR,,0.00,WeatherDisplay:10.37,2013-06-01 08:10:00,
2013-06-01 01:20:00,64.0,33.5,30.04,NW,315,5.0,7.0,32,0.00,CLR,,0.00,WeatherDisplay:10.37,2013-06-01 08:20:00,
2013-06-01 01:30:00,63.0,31.9,30.04,NW,315,1.0,5.0,31,0.00,CLR,,0.00,WeatherDisplay:10.37,2013-06-01 08:30:00,
2013-06-01 01:40:00,62.0,31.8,30.05,NW,315,2.0,4.0,32,0.00,CLR,,0.00,WeatherDisplay:10.37,2013-06-01 08:40:00,
2013-06-01 01:50:00,62.0,31.0,30.05,NW,315,2.0,4.0,31,0.00,CLR,,0.00,WeatherDisplay:10.37,2013-06-01 08:50:00,
2013-06-01 02:00:00,61.0,31.7,30.05,NW,315,2.0,4.0,33,0.00,CLR,,0.00,WeatherDisplay:10.37,2013-06-01 09:00:00,
2013-06-01 02:10:00,61.0,31.7,30.06,NW,315,5.0,5.0,33,0.00,CLR,,0.00,WeatherDisplay:10.37,2013-06-01 09:10:00,
2013-06-01 02:30:00,60.0,30.8,30.05,NW,304,2.0,6.0,33,0.00,CLR,,0.00,WeatherDisplay:10.37,2013-06-01 09:30:00,
2013-06-01 02:40:00,60.0,31.5,30.06,WNW,292,5.0,5.0,34,0.00,CLR,,0.00,WeatherDisplay:10.37,2013-06-01 09:40:00,
2013-06-01 02:50:00,61.0,31.7,30.05,WNW,292,5.0,6.0,33,0.00,CLR,,0.00,WeatherDisplay:10.37,2013-06-01 09:50:00,
2013-06-01 03:00:00,61.9,31.7,30.05,WNW,292,5.0,6.0,32,0.00,CLR,,0.00,WeatherDisplay:10.37,2013-06-01 10:00:00,
2013-06-01 03:10:00,61.0,31.7,30.04,WNW,292,3.0,5.0,33,0.00,CLR,,0.00,WeatherDisplay:10.37,2013-06-01 10:10:00,
2013-06-01 03:20:00,60.0,30.8,30.05,WNW,292,3.0,5.0,33,0.00,CLR,,0.00,WeatherDisplay:10.37,2013-06-01 10:20:00,
2013-06-01 03:40:00,60.0,30.8,30.04,NW,315,3.0,6.0,33,0.00,CLR,,0.00,WeatherDisplay:10.37,2013-06-01 10:40:00,
2013-06-01 03:50:00,59.0,30.6,30.05,NW,315,0.0,3.0,34,0.00,CLR,,0.00,WeatherDisplay:10.37,2013-06-01 10:50:00,
2013-06-01 04:10:00,57.0,30.3,30.06,NW,315,1.0,2.0,36,0.00,CLR,,0.00,WeatherDisplay:10.37,2013-06-01 11:10:00,
2013-06-01 04:20:00,55.0,32.9,30.07,North,351,5.0,5.0,43,0.00,CLR,,0.00,WeatherDisplay:10.37,2013-06-01 11:20:00,
2013-06-01 04:30:00,54.0,33.1,30.08,North,360,5.0,6.0,45,0.00,CLR,,0.00,WeatherDisplay:10.37,2013-06-01 11:30:00,
2013-06-01 04:40:00,53.0,36.3,30.08,North,360,2.0,6.0,53,0.00,CLR,,0.00,WeatherDisplay:10.37,2013-06-01 11:40:00,
2013-06-01 05:10:00,52.0,34.9,30.09,North,360,0.0,4.0,52,0.00,CLR,,0.00,WeatherDisplay:10.37,2013-06-01 12:10:00,
2013-06-01 05:30:00,52.0,34.9,30.10,North,360,2.0,4.0,52,0.00,CLR,,0.00,WeatherDisplay:10.37,2013-06-01 12:30:00,
2013-06-01 05:40:00,53.0,36.8,30.10,North,9,3.0,5.0,54,0.00,CLR,,0.00,WeatherDisplay:10.37,2013-06-01 12:40:00,
2013-06-01 06:10:00,58.9,34.0,30.08,NW,316,3.0,5.0,39,0.00,CLR,,0.00,WeatherDisplay:10.37,2013-06-01 13:10:00,
2013-06-01 06:20:00,63.0,34.2,30.06,NW,315,2.0,5.0,34,0.00,CLR,,0.00,WeatherDisplay:10.37,2013-06-01 13:20:00,
2013-06-01 06:30:00,67.0,34.5,30.03,NW,315,2.0,4.0,30,0.00,CLR,,0.00,WeatherDisplay:10.37,2013-06-01 13:30:00,
2013-06-01 06:40:00,69.9,36.2,30.02,NW,315,1.0,3.0,29,0.00,CLR,,0.00,WeatherDisplay:10.37,2013-06-01 13:40:00,
2013-06-01 06:50:00,71.9,36.1,30.01,NW,315,1.0,4.0,27,0.00,CLR,,0.00,WeatherDisplay:10.37,2013-06-01 13:50:00,
2013-06-01 07:00:00,74.0,35.9,30.00,NW,315,1.0,4.0,25,0.00,CLR,,0.00,WeatherDisplay:10.37,2013-06-01 14:00:00,
2013-06-01 07:10:00,77.0,36.3,29.99,NW,315,0.0,2.0,23,0.00,CLR,,0.00,WeatherDisplay:10.37,2013-06-01 14:10:00,
2013-06-01 07:20:00,77.0,38.5,29.98,NE,44,5.0,6.0,25,0.00,CLR,,0.00,WeatherDisplay:10.37,2013-06-01 14:20:00,
2013-06-01 07:30:00,77.0,38.5,29.99,NE,45,3.0,6.0,25,0.00,CLR,,0.00,WeatherDisplay:10.37,2013-06-01 14:30:00,
2013-06-01 07:40:00,78.0,38.3,29.99,ENE,62,3.0,6.0,24,0.00,CLR,,0.00,WeatherDisplay:10.37,2013-06-01 14:40:00,
2013-06-01 07:50:00,80.9,38.5,29.99,NNE,26,2.0,6.0,22,0.00,CLR,,0.00,WeatherDisplay:10.37,2013-06-01 14:50:00,
2013-06-01 08:00:00,81.0,38.6,29.98,NE,42,5.0,7.0,22,0.00,CLR,,0.00,WeatherDisplay:10.37,2013-06-01 15:00:00,
2013-06-01 08:10:00,82.0,37.0,29.98,NNE,27,3.0,7.0,20,0.00,CLR,,0.00,WeatherDisplay:10.37,2013-06-01 15:10:00,
2013-06-01 08:20:00,83.0,37.8,29.98,NNE,14,5.0,8.0,20,0.00,CLR,,0.00,WeatherDisplay:10.37,2013-06-01 15:20:00,
2013-06-01 08:40:00,83.0,37.8,29.98,NE,49,5.0,9.0,20,0.00,CLR,,0.00,WeatherDisplay:10.37,2013-06-01 15:40:00,
2013-06-01 08:50:00,85.0,35.3,29.97,North,9,6.0,9.0,17,0.00,CLR,,0.00,WeatherDisplay:10.37,2013-06-01 15:50:00,
2013-06-01 09:10:00,85.9,37.5,29.95,NNW,337,1.0,9.0,18,0.00,CLR,,0.00,WeatherDisplay:10.37,2013-06-01 16:10:00,
2013-06-01 09:20:00,86.0,36.1,29.95,ENE,66,3.0,8.0,17,0.00,CLR,,0.00,WeatherDisplay:10.37,2013-06-01 16:20:00,
2013-06-01 09:30:00,86.1,34.6,29.96,NE,49,3.0,7.0,16,0.00,CLR,,0.00,WeatherDisplay:10.37,2013-06-01 16:30:00,
2013-06-01 09:40:00,87.0,33.7,29.95,NE,38,2.0,10.0,15,0.00,CLR,,0.00,WeatherDisplay:10.37,2013-06-01 16:40:00,
2013-06-01 09:50:00,88.0,32.8,29.95,SSE,150,1.0,7.0,14,0.00,CLR,,0.00,WeatherDisplay:10.37,2013-06-01 16:50:00,
2013-06-01 10:00:00,89.0,33.6,29.94,ESE,112,0.0,6.0,14,0.00,CLR,,0.00,WeatherDisplay:10.37,2013-06-01 17:00:00,
2013-06-01 10:10:00,90.9,33.2,29.94,North,360,1.0,5.0,13,0.00,CLR,,0.00,WeatherDisplay:10.37,2013-06-01 17:10:00,
2013-06-01 10:20:00,90.0,32.5,29.93,SSW,208,0.0,7.0,13,0.00,CLR,,0.00,WeatherDisplay:10.37,2013-06-01 17:20:00,
2013-06-01 10:30:00,89.0,33.6,29.94,SSW,198,6.0,9.0,14,0.00,CLR,,0.00,WeatherDisplay:10.37,2013-06-01 17:30:00,
2013-06-01 10:40:00,89.0,33.6,29.95,SSE,164,1.0,7.0,14,0.00,CLR,,0.00,WeatherDisplay:10.37,2013-06-01 17:40:00,
2013-06-01 10:50:00,90.0,32.5,29.94,East,91,1.0,7.0,13,0.00,CLR,,0.00,WeatherDisplay:10.37,2013-06-01 17:50:00,
2013-06-01 11:00:00,90.0,32.5,29.94,ENE,78,3.0,9.0,13,0.00,CLR,,0.00,WeatherDisplay:10.37,2013-06-01 18:00:00,
2013-06-01 11:10:00,91.0,33.3,29.93,South,182,2.0,9.0,13,0.00,CLR,,0.00,WeatherDisplay:10.37,2013-06-01 18:10:00,
2013-06-01 11:20:00,91.0,33.3,29.93,SW,235,2.0,9.0,13,0.00,CLR,,0.00,WeatherDisplay:10.37,2013-06-01 18:20:00,
2013-06-01 11:30:00,92.0,34.1,29.93,ENE,75,0.0,9.0,13,0.00,CLR,,0.00,WeatherDisplay:10.37,2013-06-01 18:30:00,
2013-06-01 11:40:00,92.0,32.1,29.92,SE,137,1.0,8.0,12,0.00,CLR,,0.00,WeatherDisplay:10.37,2013-06-01 18:40:00,
2013-06-01 11:50:00,93.0,30.7,29.92,ENE,70,0.0,9.0,11,0.00,CLR,,0.00,WeatherDisplay:10.37,2013-06-01 18:50:00,
2013-06-01 12:00:00,92.0,30.0,29.91,SW,236,8.0,12.0,11,0.00,CLR,,0.00,WeatherDisplay:10.37,2013-06-01 19:00:00,
2013-06-01 12:10:00,91.0,29.2,29.91,SW,232,5.0,12.0,11,0.00,CLR,,0.00,WeatherDisplay:10.37,2013-06-01 19:10:00,
2013-06-01 12:20:00,92.0,30.0,29.91,WSW,256,10.0,22.0,11,0.00,CLR,,0.00,WeatherDisplay:10.37,2013-06-01 19:20:00,
2013-06-01 12:30:00,93.0,30.7,29.91,South,186,5.0,12.0,11,0.00,CLR,,0.00,WeatherDisplay:10.37,2013-06-01 19:30:00,
2013-06-01 12:40:00,93.0,30.7,29.90,WSW,247,8.0,12.0,11,0.00,CLR,,0.00,WeatherDisplay:10.37,2013-06-01 19:40:00,
2013-06-01 12:50:00,92.0,30.0,29.90,SW,223,6.0,12.0,11,0.00,CLR,,0.00,WeatherDisplay:10.37,2013-06-01 19:50:00,
2013-06-01 13:00:00,93.0,30.7,29.90,South,181,9.0,12.0,11,0.00,CLR,,0.00,WeatherDisplay:10.37,2013-06-01 20:00:00,
2013-06-01 13:10:00,94.0,31.5,29.89,SSE,166,2.0,6.0,11,0.00,CLR,,0.00,WeatherDisplay:10.37,2013-06-01 20:10:00,
2013-06-01 13:20:00,95.9,30.6,29.88,SE,128,5.0,9.0,10,0.00,CLR,,0.00,WeatherDisplay:10.37,2013-06-01 20:20:00,
2013-06-01 13:30:00,95.0,29.9,29.87,SSW,212,8.0,14.0,10,0.00,CLR,,0.00,WeatherDisplay:10.37,2013-06-01 20:30:00,
2013-06-01 13:40:00,94.0,29.1,29.87,WNW,294,3.0,15.0,10,0.00,CLR,,0.00,WeatherDisplay:10.37,2013-06-01 20:40:00,
2013-06-01 13:50:00,96.0,28.1,29.87,South,179,5.0,12.0,9,0.00,CLR,,0.00,WeatherDisplay:10.37,2013-06-01 20:50:00,
2013-06-01 14:00:00,97.0,28.8,29.86,South,182,7.0,9.0,9,0.00,CLR,,0.00,WeatherDisplay:10.37,2013-06-01 21:00:00,
2013-06-01 14:10:00,98.0,26.7,29.85,SSE,162,8.0,12.0,8,0.00,CLR,,0.00,WeatherDisplay:10.37,2013-06-01 21:10:00,
2013-06-01 14:20:00,97.0,25.9,29.85,SSW,197,10.0,15.0,8,0.00,CLR,,0.00,WeatherDisplay:10.37,2013-06-01 21:20:00,
2013-06-01 14:30:00,96.0,28.1,29.85,SSW,210,6.0,12.0,9,0.00,CLR,,0.00,WeatherDisplay:10.37,2013-06-01 21:30:00,
2013-06-01 14:40:00,95.0,24.5,29.86,WSW,238,8.0,15.0,8,0.00,CLR,,0.00,WeatherDisplay:10.37,2013-06-01 21:40:00,
2013-06-01 14:50:00,95.0,27.3,29.86,SW,219,7.0,16.0,9,0.00,CLR,,0.00,WeatherDisplay:10.37,2013-06-01 21:50:00,
2013-06-01 15:00:00,97.0,25.9,29.85,SSE,157,3.0,15.0,8,0.00,CLR,,0.00,WeatherDisplay:10.37,2013-06-01 22:00:00,
2013-06-01 15:10:00,97.1,26.0,29.84,SSW,192,5.0,15.0,8,0.00,CLR,,0.00,WeatherDisplay:10.37,2013-06-01 22:10:00,
2013-06-01 15:20:00,96.0,25.2,29.85,SW,220,7.0,13.0,8,0.00,CLR,,0.00,WeatherDisplay:10.37,2013-06-01 22:20:00,
2013-06-01 15:30:00,96.9,25.9,29.85,SSE,163,10.0,13.0,8,0.00,CLR,,0.00,WeatherDisplay:10.37,2013-06-01 22:30:00,
2013-06-01 15:40:00,95.9,25.2,29.85,WNW,302,8.0,10.0,8,0.00,CLR,,0.00,WeatherDisplay:10.37,2013-06-01 22:40:00,
2013-06-01 15:50:00,96.9,25.9,29.84,West,262,0.0,10.0,8,0.00,CLR,,0.00,WeatherDisplay:10.37,2013-06-01 22:50:00,
2013-06-01 16:00:00,96.0,25.2,29.83,West,261,7.0,12.0,8,0.00,CLR,,0.00,WeatherDisplay:10.37,2013-06-01 23:00:00,
2013-06-01 16:10:00,97.0,25.9,29.84,SSW,195,2.0,10.0,8,0.00,CLR,,0.00,WeatherDisplay:10.37,2013-06-01 23:10:00,
2013-06-01 16:20:00,97.1,26.0,29.83,SSE,168,6.0,9.0,8,0.00,CLR,,0.00,WeatherDisplay:10.37,2013-06-01 23:20:00,
2013-06-01 16:30:00,97.0,22.7,29.83,SSW,202,3.0,8.0,7,0.00,CLR,,0.00,WeatherDisplay:10.37,2013-06-01 23:30:00,
2013-06-01 16:40:00,97.0,25.9,29.83,SW,224,3.0,6.0,8,0.00,CLR,,0.00,WeatherDisplay:10.37,2013-06-01 23:40:00,
2013-06-01 16:50:00,98.0,26.7,29.82,ESE,106,6.0,8.0,8,0.00,CLR,,0.00,WeatherDisplay:10.37,2013-06-01 23:50:00,
2013-06-01 17:00:00,96.0,25.2,29.82,SSW,203,7.0,10.0,8,0.00,CLR,,0.00,WeatherDisplay:10.37,2013-06-02 00:00:00,
2013-06-01 17:10:00,96.0,25.2,29.83,SSW,213,6.0,10.0,8,0.00,CLR,,0.00,WeatherDisplay:10.37,2013-06-02 00:10:00,
2013-06-01 17:20:00,96.0,25.2,29.83,SW,228,5.0,8.0,8,0.00,CLR,,0.00,WeatherDisplay:10.37,2013-06-02 00:20:00,
2013-06-01 17:30:00,97.0,25.9,29.82,South,181,5.0,7.0,8,0.00,CLR,,0.00,WeatherDisplay:10.37,2013-06-02 00:30:00,
2013-06-01 17:40:00,96.0,25.2,29.82,SSE,166,6.0,8.0,8,0.00,CLR,,0.00,WeatherDisplay:10.37,2013-06-02 00:40:00,
2013-06-01 17:50:00,96.0,25.2,29.82,South,185,6.0,9.0,8,0.00,CLR,,0.00,WeatherDisplay:10.37,2013-06-02 00:50:00,
2013-06-01 18:00:00,95.0,24.5,29.83,South,176,3.0,7.0,8,0.00,CLR,,0.00,WeatherDisplay:10.37,2013-06-02 01:00:00,
2013-06-01 18:10:00,95.0,24.5,29.83,East,98,1.0,5.0,8,0.00,CLR,,0.00,WeatherDisplay:10.37,2013-06-02 01:10:00,
2013-06-01 18:20:00,94.0,23.7,29.83,East,89,3.0,9.0,8,0.00,CLR,,0.00,WeatherDisplay:10.37,2013-06-02 01:20:00,
2013-06-01 18:30:00,93.0,25.8,29.83,ENE,67,2.0,4.0,9,0.00,CLR,,0.00,WeatherDisplay:10.37,2013-06-02 01:30:00,
2013-06-01 18:40:00,92.0,25.1,29.84,East,87,1.0,4.0,9,0.00,CLR,,0.00,WeatherDisplay:10.37,2013-06-02 01:40:00,
2013-06-01 18:50:00,91.1,24.4,29.85,East,90,0.0,3.0,9,0.00,CLR,,0.00,WeatherDisplay:10.37,2013-06-02 01:50:00,
2013-06-01 19:00:00,90.0,23.6,29.85,East,90,0.0,0.0,9,0.00,CLR,,0.00,WeatherDisplay:10.37,2013-06-02 02:00:00,
2013-06-01 19:10:00,88.0,24.6,29.86,East,90,0.0,2.0,10,0.00,CLR,,0.00,WeatherDisplay:10.37,2013-06-02 02:10:00,
2013-06-01 19:20:00,85.1,24.7,29.87,East,90,0.0,2.0,11,0.00,CLR,,0.00,WeatherDisplay:10.37,2013-06-02 02:20:00,
2013-06-01 19:30:00,83.0,25.1,29.89,East,90,0.0,0.0,12,0.00,CLR,,0.00,WeatherDisplay:10.37,2013-06-02 02:30:00,
2013-06-01 19:40:00,81.0,25.5,29.90,East,90,0.0,1.0,13,0.00,CLR,,0.00,WeatherDisplay:10.37,2013-06-02 02:40:00,
2013-06-01 19:50:00,79.0,23.9,29.91,East,90,0.0,0.0,13,0.00,CLR,,0.00,WeatherDisplay:10.37,2013-06-02 02:50:00,
2013-06-01 20:00:00,78.0,23.1,29.92,East,90,0.0,0.0,13,0.00,CLR,,0.00,WeatherDisplay:10.37,2013-06-02 03:00:00,
2013-06-01 20:10:00,76.1,21.6,29.93,East,90,0.0,0.0,13,0.00,CLR,,0.00,WeatherDisplay:10.37,2013-06-02 03:10:00,
2013-06-01 20:20:00,75.1,22.6,29.94,East,90,0.0,1.0,14,0.00,CLR,,0.00,WeatherDisplay:10.37,2013-06-02 03:20:00,
2013-06-01 20:30:00,75.0,24.2,29.94,East,90,0.0,2.0,15,0.00,CLR,,0.00,WeatherDisplay:10.37,2013-06-02 03:30:00,
2013-06-01 20:40:00,74.0,24.9,29.94,ENE,75,1.0,1.0,16,0.00,CLR,,0.00,WeatherDisplay:10.37,2013-06-02 03:40:00,
2013-06-01 20:50:00,74.0,24.9,29.94,NNW,328,2.0,4.0,16,0.00,CLR,,0.00,WeatherDisplay:10.37,2013-06-02 03:50:00,
2013-06-01 21:00:00,74.0,24.9,29.95,NW,315,2.0,5.0,16,0.00,CLR,,0.00,WeatherDisplay:10.37,2013-06-02 04:00:00,
2013-06-01 21:10:00,73.0,24.1,29.95,NW,315,0.0,3.0,16,0.00,CLR,,0.00,WeatherDisplay:10.37,2013-06-02 04:10:00,
2013-06-01 21:20:00,71.0,24.0,29.96,NW,311,2.0,4.0,17,0.00,CLR,,0.00,WeatherDisplay:10.37,2013-06-02 04:20:00,
2013-06-01 21:30:00,73.0,24.1,29.97,West,269,5.0,7.0,16,0.00,CLR,,0.00,WeatherDisplay:10.37,2013-06-02 04:30:00,
2013-06-01 21:40:00,73.0,24.1,29.96,West,270,0.0,3.0,16,0.00,CLR,,0.00,WeatherDisplay:10.37,2013-06-02 04:40:00,
2013-06-01 21:50:00,72.0,24.8,29.97,NNE,21,1.0,6.0,17,0.00,CLR,,0.00,WeatherDisplay:10.37,2013-06-02 04:50:00,
2013-06-01 22:00:00,71.0,25.3,29.97,NNE,22,0.0,3.0,18,0.00,CLR,,0.00,WeatherDisplay:10.37,2013-06-02 05:00:00,
2013-06-01 22:10:00,72.0,26.1,29.98,NNE,22,1.0,5.0,18,0.00,CLR,,0.00,WeatherDisplay:10.37,2013-06-02 05:10:00,
2013-06-01 22:20:00,72.0,26.1,29.97,NNE,32,5.0,6.0,18,0.00,CLR,,0.00,WeatherDisplay:10.37,2013-06-02 05:20:00,
2013-06-01 22:30:00,70.0,24.5,29.97,NE,45,1.0,4.0,18,0.00,CLR,,0.00,WeatherDisplay:10.37,2013-06-02 05:30:00,
2013-06-01 22:40:00,70.0,25.8,29.99,ESE,105,3.0,5.0,19,0.00,CLR,,0.00,WeatherDisplay:10.37,2013-06-02 05:40:00,
2013-06-01 22:50:00,70.0,27.0,29.99,East,90,1.0,6.0,20,0.00,CLR,,0.00,WeatherDisplay:10.37,2013-06-02 05:50:00,
2013-06-01 23:00:00,69.0,28.5,29.99,ENE,57,1.0,7.0,22,0.00,CLR,,0.00,WeatherDisplay:10.37,2013-06-02 06:00:00,
2013-06-01 23:10:00,70.0,29.4,29.99,NNE,25,7.0,8.0,22,0.00,CLR,,0.00,WeatherDisplay:10.37,2013-06-02 06:10:00,
2013-06-01 23:20:00,70.0,30.5,29.99,NNE,26,3.0,9.0,23,0.00,CLR,,0.00,WeatherDisplay:10.37,2013-06-02 06:20:00,
2013-06-01 23:30:00,70.0,30.5,29.99,NNE,22,2.0,6.0,23,0.00,CLR,,0.00,WeatherDisplay:10.37,2013-06-02 06:30:00,
2013-06-01 23:40:00,69.0,30.7,29.99,NNE,22,5.0,7.0,24,0.00,CLR,,0.00,WeatherDisplay:10.37,2013-06-02 06:40:00,
2013-06-01 23:50:00,68.0,29.8,30.00,NNE,22,2.0,6.0,24,0.00,CLR,,0.00,WeatherDisplay:10.37,2013-06-02 06:50:00,